createdAt,value
2023-01-23T00:03:14.148Z,100055.17
2023-01-23T00:08:17.240Z,100064.08
2023-01-23T00:13:25.787Z,100064.48
2023-01-23T00:18:27.810Z,100061.89
2023-01-23T00:23:34.168Z,100065.41
2023-01-23T00:28:37.416Z,100076.55
2023-01-23T00:33:41.095Z,100080.95
2023-01-23T00:38:43.839Z,100082.59
2023-01-23T00:43:50.818Z,100092.38
2023-01-23T00:48:56.116Z,100098.19
2023-01-23T00:53:58.889Z,100097.79
2023-01-23T00:59:04.556Z,100100.56
2023-01-23T01:04:07.036Z,100108.23
2023-01-23T01:09:14.591Z,100113.99
2023-01-23T01:14:19.457Z,100104.20
2023-01-23T01:19:22.303Z,100108.66
2023-01-23T01:24:24.973Z,100109.07
2023-01-23T01:29:27.057Z,100102.48
2023-01-23T01:34:31.531Z,100105.35
2023-01-23T01:39:33.520Z,100114.80
2023-01-23T01:45:03.768Z,100124.75
2023-01-23T01:50:07.239Z,100121.20
2023-01-23T01:55:15.404Z,100126.73
2023-01-23T02:00:19.456Z,100131.81
2023-01-23T02:05:36.000Z,100132.81
2023-01-23T02:10:44.222Z,100132.96
2023-01-23T02:15:47.502Z,100137.02
2023-01-23T02:20:55.898Z,100125.79
2023-01-23T02:26:28.021Z,100129.11
2023-01-23T02:31:32.118Z,100135.58
2023-01-23T02:36:35.562Z,100141.77
2023-01-23T02:42:02.693Z,100145.59
2023-01-23T02:47:19.373Z,100150.30
2023-01-23T02:52:23.374Z,100155.04
2023-01-23T02:57:25.998Z,100155.77
2023-01-23T03:02:28.112Z,100157.61
2023-01-23T03:07:30.183Z,100162.25
2023-01-23T03:12:33.040Z,100162.77
2023-01-23T03:17:36.827Z,100162.07
2023-01-23T03:22:39.623Z,100154.86
2023-01-23T03:27:43.690Z,100155.67
2023-01-23T03:32:46.606Z,100154.95
2023-01-23T03:37:50.951Z,100160.90
2023-01-23T03:42:56.906Z,100162.02
2023-01-23T03:48:02.597Z,100167.70
2023-01-23T03:53:05.165Z,100167.69
2023-01-23T03:58:10.046Z,100167.52
2023-01-23T04:03:15.783Z,100167.19
2023-01-23T04:08:18.106Z,100164.88
2023-01-23T04:13:20.310Z,100166.84
2023-01-23T04:18:23.659Z,100171.38
2023-01-23T04:23:26.900Z,100176.97
2023-01-23T04:28:32.517Z,100179.33
2023-01-23T04:33:41.748Z,100181.65
2023-01-23T04:38:44.484Z,100185.05
2023-01-23T04:44:20.557Z,100189.64
2023-01-23T04:50:05.251Z,100208.08
2023-01-23T04:55:16.396Z,100220.90
2023-01-23T05:00:19.885Z,100223.45
2023-01-23T05:05:23.515Z,100227.54
2023-01-23T05:10:27.815Z,100228.54
2023-01-23T05:15:35.408Z,100218.65
2023-01-23T05:20:38.687Z,100213.30
2023-01-23T05:25:43.922Z,100211.34
2023-01-23T05:30:51.728Z,100216.30
2023-01-23T05:36:13.816Z,100212.71
2023-01-23T05:41:19.638Z,100217.59
2023-01-23T05:46:54.318Z,100227.05
2023-01-23T05:51:57.351Z,100231.98
2023-01-23T05:57:01.028Z,100239.42
2023-01-23T06:02:15.566Z,100249.98
2023-01-23T06:07:37.667Z,100259.60
2023-01-23T06:12:41.771Z,100253.84
2023-01-23T06:17:44.492Z,100261.15
2023-01-23T06:22:47.548Z,100274.14
2023-01-23T06:27:59.171Z,100288.71
2023-01-23T06:33:03.153Z,100307.23
2023-01-23T06:38:10.532Z,100308.88
2023-01-23T06:43:13.769Z,100310.12
2023-01-23T06:48:16.483Z,100322.40
2023-01-23T06:53:19.649Z,100327.52
2023-01-23T06:58:24.959Z,100329.46
2023-01-23T07:03:28.393Z,100331.36
2023-01-23T07:08:34.616Z,100331.66
2023-01-23T07:13:38.290Z,100334.52
2023-01-23T07:18:40.722Z,100336.64
2023-01-23T07:23:43.745Z,100345.83
2023-01-23T07:28:48.544Z,100342.54
2023-01-23T07:33:50.876Z,100344.21
2023-01-23T07:38:53.254Z,100343.00
2023-01-23T07:43:59.164Z,100341.70
2023-01-23T07:49:01.736Z,100344.73
2023-01-23T07:54:03.951Z,100348.91
2023-01-23T07:59:06.347Z,100344.98
2023-01-23T08:04:08.814Z,100346.75
2023-01-23T08:09:12.921Z,100351.55
2023-01-23T08:14:24.974Z,100357.27
2023-01-23T08:19:36.239Z,100362.02
2023-01-23T08:24:38.404Z,100367.51
2023-01-23T08:29:40.400Z,100369.21
2023-01-23T08:34:45.295Z,100368.13
2023-01-23T08:39:48.662Z,100373.36
2023-01-23T08:44:50.726Z,100382.66
2023-01-23T08:49:52.963Z,100384.47
2023-01-23T08:54:54.935Z,100389.36
2023-01-23T08:59:57.508Z,100383.04
2023-01-23T09:04:59.427Z,100391.80
2023-01-23T09:10:01.512Z,100390.04
2023-01-23T09:15:04.974Z,100392.83
2023-01-23T09:20:09.391Z,100393.58
2023-01-23T09:25:14.543Z,100392.85
2023-01-23T09:30:17.856Z,100394.25
2023-01-23T09:35:24.366Z,100392.64
2023-01-23T09:43:45.979Z,100387.11
2023-01-23T09:49:50.207Z,100380.23
2023-01-23T09:55:02.098Z,100381.44
2023-01-23T10:00:30.850Z,100381.56
2023-01-23T10:06:05.811Z,100376.75
2023-01-23T10:11:26.426Z,100372.61
2023-01-23T10:16:53.132Z,100375.89
2023-01-23T10:22:28.808Z,100369.64
2023-01-23T10:27:43.388Z,100368.61
2023-01-23T10:32:52.883Z,100372.21
2023-01-23T10:38:26.340Z,100367.42
2023-01-23T10:43:28.520Z,100357.71
2023-01-23T10:49:47.843Z,100362.90
2023-01-23T10:54:50.717Z,100369.17
2023-01-23T11:00:18.016Z,100364.26
2023-01-23T11:05:52.835Z,100365.17
2023-01-23T11:11:22.648Z,100366.13
2023-01-23T11:16:30.734Z,100359.83
2023-01-23T11:21:42.007Z,100356.94
2023-01-23T11:26:46.262Z,100353.79
2023-01-23T11:32:01.385Z,100348.61
2023-01-23T11:37:17.647Z,100340.25
2023-01-23T11:42:28.863Z,100340.89
2023-01-23T11:48:00.825Z,100337.52
2023-01-23T11:53:41.474Z,100334.36
2023-01-23T11:59:17.031Z,100334.23
2023-01-23T12:05:13.605Z,100333.23
2023-01-23T12:11:09.428Z,100327.11
2023-01-23T12:16:26.780Z,100317.20
2023-01-23T12:21:59.162Z,100318.09
2023-01-23T12:27:17.551Z,100312.66
2023-01-23T12:32:58.181Z,100312.17
2023-01-23T12:38:41.592Z,100315.65
2023-01-23T12:43:54.235Z,100316.87
2023-01-23T12:49:20.198Z,100308.04
2023-01-23T12:54:36.773Z,100311.70
2023-01-23T12:59:59.131Z,100306.65
2023-01-23T13:05:16.244Z,100308.87
2023-01-23T13:10:53.907Z,100311.52
2023-01-23T13:16:14.820Z,100316.26
2023-01-23T13:21:41.679Z,100318.19
2023-01-23T13:26:44.643Z,100329.22
2023-01-23T13:32:26.161Z,100329.27
2023-01-23T13:37:39.190Z,100330.65
2023-01-23T13:42:42.076Z,100335.27
2023-01-23T13:48:15.770Z,100341.20
2023-01-23T14:21:49.411Z,100343.27
2023-01-23T14:27:09.575Z,100346.39
2023-01-23T14:32:28.067Z,100350.48
2023-01-23T14:37:35.247Z,100352.03
2023-01-23T14:42:39.263Z,100354.38
2023-01-23T14:47:50.881Z,100352.71
2023-01-23T14:53:04.831Z,100347.08
2023-01-23T14:58:23.986Z,100340.39
2023-01-23T15:04:07.126Z,100334.11
2023-01-23T15:09:21.308Z,100331.23
2023-01-23T15:14:34.379Z,100331.60
2023-01-23T15:19:45.986Z,100341.69
2023-01-23T15:25:00.495Z,100350.86
2023-01-23T15:30:45.384Z,100352.11
2023-01-23T15:36:05.422Z,100357.16
2023-01-23T15:41:30.132Z,100356.88
2023-01-23T15:46:36.773Z,100352.96
2023-01-23T15:51:44.959Z,100358.23
2023-01-23T15:56:53.784Z,100354.95
2023-01-23T16:02:29.639Z,100353.11
2023-01-23T16:07:38.842Z,100355.16
2023-01-23T16:12:48.977Z,100353.55
2023-01-23T16:18:04.757Z,100352.30
2023-01-23T16:23:39.126Z,100358.26
2023-01-23T16:29:08.683Z,100363.00
2023-01-23T16:34:21.513Z,100369.16
2023-01-23T16:39:27.071Z,100377.61
2023-01-23T16:44:34.564Z,100381.93
2023-01-23T16:49:51.536Z,100389.17
2023-01-23T16:54:55.841Z,100387.77
2023-01-23T17:00:01.827Z,100389.46
2023-01-23T17:05:11.770Z,100390.61
2023-01-23T17:10:37.895Z,100386.70
2023-01-23T17:15:50.058Z,100386.35
2023-01-23T17:20:57.249Z,100386.15
2023-01-23T17:26:01.537Z,100385.06
2023-01-23T17:31:05.264Z,100386.63
2023-01-23T17:36:08.132Z,100394.23
2023-01-23T17:41:18.702Z,100399.65
2023-01-23T17:46:28.003Z,100400.88
2023-01-23T17:51:33.550Z,100404.45
2023-01-23T17:56:38.771Z,100408.69
2023-01-23T18:01:41.080Z,100403.83
2023-01-23T18:06:46.588Z,100411.11
2023-01-23T18:11:56.239Z,100410.95
2023-01-23T18:17:02.164Z,100411.58
2023-01-23T18:22:10.927Z,100410.79
2023-01-23T18:27:29.813Z,100415.39
2023-01-23T18:33:15.400Z,100414.51
2023-01-23T18:39:01.915Z,100409.66
2023-01-23T18:44:34.880Z,100408.86
2023-01-23T18:49:42.927Z,100413.61
2023-01-23T18:55:24.379Z,100411.96
2023-01-23T19:00:49.685Z,100415.70
2023-01-23T19:06:12.953Z,100418.61
2023-01-23T19:11:54.627Z,100417.98
2023-01-23T19:17:37.052Z,100420.83
2023-01-23T19:22:53.493Z,100415.07
2023-01-23T19:28:00.057Z,100414.21
2023-01-23T19:33:03.285Z,100419.41
2023-01-23T19:38:08.805Z,100420.02
2023-01-23T19:43:17.862Z,100423.04
2023-01-23T19:48:25.704Z,100420.45
2023-01-23T19:53:33.296Z,100421.02
2023-01-23T19:58:39.455Z,100423.84
2023-01-23T20:03:46.468Z,100425.78
2023-01-23T20:08:49.524Z,100430.02
2023-01-23T20:13:58.032Z,100428.05
2023-01-23T20:19:02.802Z,100433.32
2023-01-23T20:24:07.256Z,100434.68
2023-01-23T20:29:11.378Z,100433.11
2023-01-23T20:34:36.999Z,100437.61
2023-01-23T20:39:40.879Z,100434.52
2023-01-23T20:44:48.863Z,100436.63
2023-01-23T20:49:51.396Z,100437.82
2023-01-23T20:55:07.174Z,100438.95
2023-01-23T21:00:13.927Z,100435.73
2023-01-23T21:05:16.685Z,100439.09
2023-01-23T21:10:28.741Z,100440.65
2023-01-23T21:15:34.810Z,100442.20
2023-01-23T21:20:41.301Z,100443.36
2023-01-23T21:26:03.484Z,100440.94
2023-01-23T21:31:19.072Z,100443.52
2023-01-23T21:36:28.340Z,100444.27
2023-01-23T21:41:33.287Z,100441.64
2023-01-23T21:46:36.896Z,100440.86
2023-01-23T21:51:44.689Z,100448.14
2023-01-23T21:56:50.839Z,100448.16
2023-01-23T22:01:56.266Z,100446.95
2023-01-23T22:07:01.947Z,100452.92
2023-01-23T22:12:04.906Z,100458.73
2023-01-23T22:17:15.114Z,100460.63
2023-01-23T22:22:32.649Z,100462.27
2023-01-23T22:27:37.776Z,100452.23
2023-01-23T22:32:47.549Z,100452.67
2023-01-23T22:37:56.017Z,100444.16
2023-01-23T22:43:03.834Z,100452.42
2023-01-23T22:48:07.229Z,100450.52
2023-01-23T22:53:11.684Z,100451.04
2023-01-23T22:58:23.612Z,100450.64
2023-01-23T23:03:27.545Z,100451.50
2023-01-23T23:08:30.591Z,100455.45
2023-01-23T23:13:40.849Z,100454.08
2023-01-23T23:18:44.496Z,100455.58
2023-01-23T23:23:50.441Z,100455.49
2023-01-23T23:29:03.840Z,100455.55
2023-01-23T23:34:06.762Z,100457.27
2023-01-23T23:39:10.272Z,100455.13
2023-01-23T23:44:12.900Z,100458.86
2023-01-23T23:49:22.040Z,100452.17
2023-01-23T23:54:27.929Z,100447.77
2023-01-23T23:59:33.889Z,100442.73
